createdAt,value
2018-11-22T12:17:55.527Z,86.73
2018-11-22T12:20:24.165Z,85.76
2018-11-22T12:22:54.401Z,85.95
2018-11-22T12:25:25.259Z,85.61
2018-11-22T12:27:55.648Z,85.34
2018-11-22T12:30:25.833Z,85.80
2018-11-22T12:33:03.163Z,86.05
2018-11-22T12:35:36.942Z,85.98
2018-11-22T12:38:10.785Z,86.27
2018-11-22T12:40:39.445Z,86.46
2018-11-22T12:43:08.190Z,86.03
2018-11-22T12:45:36.777Z,86.70
2018-11-22T12:48:05.665Z,87.16
2018-11-22T12:50:34.487Z,86.44
2018-11-22T12:53:05.083Z,85.95
2018-11-22T12:55:33.685Z,86.01
2018-11-22T12:58:05.531Z,85.71
2018-11-22T13:00:34.175Z,86.94
2018-11-22T13:03:04.600Z,86.88
2018-11-22T13:05:33.237Z,85.93
2018-11-22T13:08:03.262Z,86.58
2018-11-22T13:10:31.898Z,86.58
2018-11-22T13:13:00.549Z,86.11
2018-11-22T13:15:29.147Z,86.75
2018-11-22T13:17:57.764Z,87.52
2018-11-22T13:20:27.603Z,86.96
2018-11-22T13:22:56.224Z,87.98
2018-11-22T13:25:24.895Z,87.39
2018-11-22T13:27:53.564Z,87.93
2018-11-22T13:30:24.769Z,88.12
2018-11-22T13:32:54.334Z,87.43
2018-11-22T13:35:23.033Z,87.55
2018-11-22T13:37:52.795Z,86.96
2018-11-22T13:40:21.471Z,86.80
2018-11-22T13:42:50.939Z,86.90
2018-11-22T13:45:22.102Z,87.25
2018-11-22T13:47:52.054Z,87.89
2018-11-22T13:50:24.306Z,88.15
2018-11-22T13:52:54.804Z,88.25
2018-11-22T13:55:23.548Z,87.72
2018-11-22T13:57:52.257Z,87.91
2018-11-22T14:00:23.031Z,87.92
2018-11-22T14:02:56.099Z,88.52
2018-11-22T14:05:24.790Z,88.30
2018-11-22T14:07:53.477Z,88.30
2018-11-22T14:10:22.641Z,88.88
2018-11-22T14:12:51.744Z,88.83
2018-11-22T14:15:22.529Z,89.31
2018-11-22T14:17:52.729Z,88.65
2018-11-22T14:20:26.655Z,89.35
2018-11-22T14:22:55.409Z,88.85
2018-11-22T14:25:23.940Z,89.47
2018-11-22T14:27:52.840Z,89.37
2018-11-22T14:30:24.168Z,89.59
2018-11-22T14:32:53.249Z,89.26
2018-11-22T14:35:22.807Z,88.74
2018-11-22T14:37:51.963Z,89.45
2018-11-22T14:40:22.230Z,89.72
2018-11-22T14:42:51.585Z,89.17
2018-11-22T14:45:20.357Z,89.77
2018-11-22T14:47:49.899Z,89.79
2018-11-22T14:50:23.821Z,90.08
2018-11-22T14:52:58.804Z,90.20
2018-11-22T14:55:27.431Z,89.50
2018-11-22T14:57:56.036Z,89.74
2018-11-22T15:00:24.827Z,88.97
2018-11-22T15:02:53.340Z,88.95
2018-11-22T15:05:21.929Z,89.40
2018-11-22T15:07:50.561Z,89.35
2018-11-22T15:10:20.211Z,89.50
2018-11-22T15:12:49.791Z,89.93
2018-11-22T15:15:22.999Z,89.79
2018-11-22T15:17:51.601Z,90.13
2018-11-22T15:20:21.191Z,90.05
2018-11-22T15:22:50.787Z,89.87
2018-11-22T15:25:20.865Z,89.71
2018-11-22T15:27:49.590Z,90.19
2018-11-22T15:30:22.060Z,90.04
2018-11-22T15:32:50.731Z,90.08
2018-11-22T15:35:20.744Z,89.95
2018-11-22T15:37:50.064Z,89.40
2018-11-22T15:40:23.550Z,90.46
2018-11-22T15:42:53.618Z,90.66
2018-11-22T15:45:23.866Z,90.32
2018-11-22T15:47:52.554Z,90.26
2018-11-22T15:50:23.493Z,90.87
2018-11-22T15:52:52.147Z,90.44
2018-11-22T15:55:21.342Z,90.92
2018-11-22T15:57:51.630Z,90.62
2018-11-22T16:00:36.897Z,90.92
2018-11-22T16:03:05.793Z,91.02
2018-11-22T16:05:34.507Z,90.90
2018-11-22T16:08:04.636Z,91.33
2018-11-22T16:10:35.539Z,90.96
2018-11-22T16:13:08.474Z,91.18
2018-11-22T16:15:43.272Z,91.38
2018-11-22T16:18:11.934Z,91.58
2018-11-22T16:20:40.567Z,91.54
2018-11-22T16:23:09.251Z,91.68
2018-11-22T16:25:37.904Z,91.75
2018-11-22T16:28:07.160Z,91.73
2018-11-22T16:30:35.998Z,91.74
2018-11-22T16:33:05.663Z,91.79
2018-11-22T16:35:35.165Z,91.87
2018-11-22T16:38:05.768Z,91.82
2018-11-22T16:40:34.421Z,92.12
2018-11-22T16:43:04.917Z,92.36
2018-11-22T16:45:35.194Z,91.34
2018-11-22T16:48:07.324Z,92.05
2018-11-22T16:50:37.292Z,91.86
2018-11-22T16:53:07.043Z,92.16
2018-11-22T16:55:35.794Z,92.27
2018-11-22T16:58:06.923Z,91.77
2018-11-22T17:00:37.309Z,91.80
2018-11-22T17:03:09.047Z,92.11
2018-11-22T17:05:42.077Z,92.07
2018-11-22T17:08:11.188Z,92.27
2018-11-22T17:10:40.570Z,92.28
2018-11-22T17:13:09.698Z,92.24
2018-11-22T17:15:39.845Z,92.56
2018-11-22T17:18:09.729Z,92.53
2018-11-22T17:20:38.453Z,92.58
2018-11-22T17:23:07.691Z,93.12
2018-11-22T17:25:36.951Z,92.72
2018-11-22T17:28:07.002Z,92.65
2018-11-22T17:30:39.186Z,91.77
2018-11-22T17:33:07.995Z,92.23
2018-11-22T17:35:36.960Z,92.50
2018-11-22T17:38:07.139Z,92.47
2018-11-22T17:40:38.944Z,92.64
2018-11-22T17:43:07.650Z,92.26
2018-11-22T17:45:37.866Z,92.79
2018-11-22T17:48:06.958Z,92.86
2018-11-22T17:50:37.652Z,92.87
2018-11-22T17:53:07.321Z,93.35
2018-11-22T17:55:36.258Z,92.72
2018-11-22T17:58:05.178Z,92.63
2018-11-22T18:00:35.390Z,92.51
2018-11-22T18:03:07.446Z,92.59
2018-11-22T18:05:36.350Z,92.18
2018-11-22T18:08:05.208Z,92.52
2018-11-22T18:10:35.429Z,92.91
2018-11-22T18:13:05.581Z,92.28
2018-11-22T18:15:39.402Z,92.97
2018-11-22T18:18:08.439Z,93.26
2018-11-22T18:20:37.090Z,92.86
2018-11-22T18:23:11.242Z,93.03
2018-11-22T18:25:34.570Z,93.08
2018-11-22T18:28:04.563Z,92.81
2018-11-22T18:30:34.183Z,92.50
2018-11-22T18:33:06.138Z,92.99
2018-11-22T18:35:34.876Z,93.24
2018-11-22T18:38:05.262Z,92.86
2018-11-22T18:40:39.184Z,92.86
2018-11-22T18:43:09.989Z,93.01
2018-11-22T18:45:41.746Z,93.25
2018-11-22T18:48:13.136Z,93.25
2018-11-22T18:50:43.645Z,93.06
2018-11-22T18:53:13.030Z,93.20
2018-11-22T18:55:41.949Z,93.50
2018-11-22T18:58:12.425Z,93.08
2018-11-22T19:00:44.522Z,93.13
2018-11-22T19:03:16.068Z,93.13
2018-11-22T19:05:45.162Z,93.24
2018-11-22T19:08:14.245Z,93.21
2018-11-22T19:10:44.335Z,93.29
2018-11-22T19:13:14.050Z,92.93
2018-11-22T19:15:45.948Z,93.21
2018-11-22T19:18:16.842Z,93.42
2018-11-22T19:20:46.333Z,93.12
2018-11-22T19:23:18.365Z,93.33
2018-11-22T19:25:47.336Z,93.09
2018-11-22T19:28:16.597Z,92.64
2018-11-22T19:30:47.441Z,92.60
2018-11-22T19:33:18.751Z,92.46
2018-11-22T19:35:51.297Z,92.78
2018-11-22T19:38:21.230Z,93.02
2018-11-22T19:40:52.088Z,92.69
2018-11-22T19:43:22.233Z,92.85
2018-11-22T19:45:53.021Z,92.92
2018-11-22T19:48:23.928Z,93.29
2018-11-22T19:50:54.044Z,92.82
2018-11-22T19:53:23.923Z,92.73
2018-11-22T19:56:00.851Z,93.01
2018-11-22T19:58:32.420Z,92.80
2018-11-22T20:01:07.687Z,93.02
2018-11-22T20:03:34.425Z,92.72
2018-11-22T20:06:06.173Z,92.73
2018-11-22T20:08:35.627Z,93.26
2018-11-22T20:11:06.797Z,93.02
2018-11-22T20:13:40.085Z,92.91
2018-11-22T20:16:10.007Z,93.00
2018-11-22T20:18:39.072Z,92.93
2018-11-22T20:21:10.922Z,93.06
2018-11-22T20:23:42.149Z,92.93
2018-11-22T20:26:11.107Z,92.98
2018-11-22T20:28:40.530Z,93.13
2018-11-22T20:31:10.500Z,93.10
2018-11-22T20:33:41.452Z,93.36
2018-11-22T20:36:11.805Z,93.17
2018-11-22T20:38:40.769Z,93.17
2018-11-22T20:41:11.024Z,93.11
2018-11-22T20:43:42.892Z,93.27
2018-11-22T20:46:11.842Z,92.98
2018-11-22T20:48:40.887Z,93.03
2018-11-22T20:51:12.031Z,93.20
2018-11-22T20:53:40.974Z,93.44
2018-11-22T20:56:10.097Z,93.18
2018-11-22T20:58:40.438Z,93.36
2018-11-22T21:01:10.405Z,93.19
2018-11-22T21:03:42.287Z,93.08
2018-11-22T21:06:11.713Z,93.05
2018-11-22T21:08:48.296Z,93.21
2018-11-22T21:11:11.443Z,93.20
2018-11-22T21:13:41.141Z,93.43
2018-11-22T21:16:10.787Z,92.69
2018-11-22T21:18:40.243Z,93.12
2018-11-22T21:21:09.682Z,93.43
2018-11-22T21:23:38.613Z,92.75
2018-11-22T21:26:14.195Z,93.25
2018-11-22T21:28:37.810Z,93.10
2018-11-22T21:31:07.487Z,93.15
2018-11-22T21:33:38.471Z,93.23
2018-11-22T21:36:07.403Z,93.22
2018-11-22T21:38:36.443Z,92.92
2018-11-22T21:41:07.271Z,92.93
2018-11-22T21:43:36.246Z,92.76
2018-11-22T21:46:05.549Z,92.60
2018-11-22T21:48:34.450Z,92.88
2018-11-22T21:51:05.306Z,92.48
2018-11-22T21:53:34.162Z,92.57
2018-11-22T21:56:09.599Z,92.50
2018-11-22T21:58:38.733Z,93.07
2018-11-22T22:01:07.623Z,92.86
2018-11-22T22:03:36.468Z,93.04
2018-11-22T22:06:05.839Z,92.60
2018-11-22T22:08:36.182Z,92.24
2018-11-22T22:11:06.033Z,92.82
2018-11-22T22:13:35.554Z,92.73
2018-11-22T22:16:06.458Z,92.55
2018-11-22T22:18:35.652Z,92.33
2018-11-22T22:21:06.210Z,92.95
2018-11-22T22:23:35.451Z,92.82
2018-11-22T22:26:05.645Z,92.66
2018-11-22T22:28:34.491Z,92.34
2018-11-22T22:31:05.133Z,92.72
2018-11-22T22:33:33.926Z,92.67
2018-11-22T22:36:04.407Z,92.20
2018-11-22T22:38:33.218Z,92.02
2018-11-22T22:41:03.618Z,92.75
2018-11-22T22:43:32.423Z,92.26
2018-11-22T22:46:02.856Z,92.76
2018-11-22T22:48:31.687Z,92.82
2018-11-22T22:51:00.425Z,92.72
2018-11-22T22:53:29.278Z,92.39
2018-11-22T22:55:58.422Z,92.50
2018-11-22T22:58:27.206Z,92.61
2018-11-22T23:00:57.586Z,92.56
2018-11-22T23:03:26.386Z,92.46
2018-11-22T23:05:55.150Z,92.53
2018-11-22T23:08:23.880Z,92.27
2018-11-22T23:10:52.669Z,92.12
2018-11-22T23:13:21.757Z,92.25
2018-11-22T23:15:50.485Z,92.48
2018-11-22T23:18:19.236Z,91.87
2018-11-22T23:20:48.147Z,91.98
2018-11-22T23:23:16.917Z,91.73
2018-11-22T23:25:45.686Z,91.10
2018-11-22T23:28:14.493Z,91.90
2018-11-22T23:30:45.154Z,91.71
2018-11-22T23:33:13.899Z,91.91
2018-11-22T23:35:42.635Z,91.93
2018-11-22T23:38:11.412Z,92.01
2018-11-22T23:40:40.172Z,91.74
2018-11-22T23:43:08.960Z,91.85
2018-11-22T23:45:37.690Z,91.97
2018-11-22T23:48:06.471Z,91.33
2018-11-22T23:50:35.212Z,92.10
2018-11-22T23:53:05.697Z,91.49
2018-11-22T23:55:34.720Z,92.93
2018-11-22T23:58:04.894Z,92.26
